x

Boston 16 Nm East Of Boston, Ma (44013) Wave Buoy

12:50pm - Sun 14th Feb 2016 All times are EST. -5 hours from GMT.

  • Sig Wave height 3.6ft
  • Swell Direction
  • Peak Period 4s
  • Average Period 4s
  • Wind
    18mph, 22mph gusts
  • Sea Temp 40°f
  • Air Temp 7°f
  • Sea Pressure 1028mb
  • Boston 16 Nm East Of Boston, Ma
  • Boston 16 Nm East Of Boston, Ma

More Historic Weather Station data

Upgrade to MSW Pro to gain access to the past 30 days of data for over 8000 Wavebouys and Weather Stations around the globe.

Join Pro

Comparision Forecast

View Surf forecast
   
Sun 02/14 12:50pm 3.5ft 4s 4s 18 22 mph 1028mb 40f 7f
11:50am 3.5ft 4s 4s 20 27 mph 1028.1mb 40f 5f
10:50am 4ft 4s 4s 18 25 mph 1028.2mb 40f 3f
9:50am 4.5ft 5s 4s 16 20 mph 1028.1mb 40f 1f
8:50am 4.5ft 5s 4s 18 25 mph 1027.7mb 40f -1f
7:50am 5ft 5s 4s 22 29 mph 1026.5mb 40f -1f
6:50am 5ft 5s 4s 25 29 mph 1025.2mb 40f -2f
5:50am 5.5ft 5s 4s 27 34 mph 1024.1mb 40f -3f
4:50am 5.5ft 6s 5s 25 31 mph 1023.4mb 40f -3f
3:50am 5.5ft 5s 5s 27 36 mph 1022.4mb 40f -3f
2:50am 6ft 5s 5s 27 34 mph 1021.7mb 40f -3f
1:50am 6ft 6s 5s 31 43 mph 1021.4mb 40f -2f
12:50am 6ft 5s 5s 31 40 mph 1020.5mb 40f -1f
Sat 02/13 11:50pm 5ft 5s 4s 29 36 mph 1020mb 40f 2f
10:50pm 5.5ft 5s 5s 31 40 mph 1019.3mb 40f 4f
9:50pm 5.5ft 5s 4s 34 40 mph 1019mb 40f 6f
8:50pm 5ft 5s 4s 27 38 mph 1018.7mb 40f 7f
7:50pm 5ft 5s 4s 31 43 mph 1017.6mb 40f 10f
6:50pm 5ft 5s 4s 31 38 mph 1016.2mb 41f 12f
5:50pm 4.5ft 5s 4s 31 40 mph 1014.3mb 41f 15f
4:50pm 4.5ft 5s 4s 31 38 mph 1012.4mb 41f 18f
3:50pm 3.5ft 4s 4s 27 31 mph 1011.2mb 41f 20f
2:50pm 3.5ft 5s 4s 27 36 mph 1009.9mb 41f 22f
1:50pm 3.5ft 5s 4s 25 36 mph 1009.3mb 41f 22f
12:50pm 4ft 5s 4s 25 31 mph 1009.1mb 41f 23f
11:50am 3.5ft 4s 4s 22 29 mph 1009.1mb 40f 24f
10:50am 3.5ft 4s 4s 25 31 mph 1009.3mb 41f 23f
9:50am 3ft 4s 4s 25 34 mph 1009mb 41f 23f
8:50am 2ft 3s 3s 22 27 mph 1008.8mb 41f 23f
7:50am 1.3ft 11s 3s 18 22 mph 1008.9mb 41f 23f
6:50am 1.3ft 3s 3s 11 18 mph 1008.9mb 40f 23f
5:50am 1.3ft 3s 3s 11 16 mph 1008.9mb 40f 23f
4:50am 1.3ft 10s 3s 13 18 mph 1008.8mb 40f 23f
3:50am 1ft 10s 4s 11 16 mph 1008.9mb 40f 24f
2:50am 1ft 11s 5s 9 13 mph 1009.5mb 40f 23f
1:50am 1ft 11s 4s 7 9 mph 1010.6mb 40f 22f
12:50am 1.3ft 3s 3s 9 13 mph 1011.7mb 40f 22f
Fri 02/12 11:50pm 1.3ft 11s 4s 11 16 mph 1012.8mb 40f 23f
10:50pm 1.3ft 3s 3s 13 18 mph 1013.3mb 40f 23f
9:50pm 1.3ft 12s 3s 13 18 mph 1013.8mb 40f 24f
8:50pm 1.3ft 11s 4s 13 20 mph 1014.8mb 40f 23f
7:50pm 1.3ft 12s 4s 16 20 mph 1015.9mb 40f 24f
6:50pm 1.3ft 11s 4s 13 16 mph 1017mb 40f 24f
5:50pm 1.6ft 12s 4s 13 20 mph 1017.2mb 41f 23f
4:50pm 1.3ft 11s 4s 13 18 mph 1017.4mb 41f 24f
3:50pm 1.3ft 12s 4s 11 18 mph 1017.8mb 41f 24f
2:50pm 1.3ft 12s 4s 9 13 mph 1018.1mb 41f 23f
1:50pm 1.3ft 11s 4s 11 16 mph 1018.7mb 41f 22f
12:50pm 1.6ft 3s 4s 11 18 mph 1019.6mb 41f 19f
11:50am 2ft 3s 4s 13 18 mph 1020.6mb 41f 18f
10:50am 2ft 4s 3s 16 20 mph 1021.7mb 40f 15f
9:50am 2.5ft 4s 4s 18 25 mph 1021.9mb 40f 14f
8:50am 2.5ft 4s 4s 20 27 mph 1022.6mb 40f 14f
7:50am 3ft 4s 4s 20 27 mph 1022.6mb 40f 12f
6:50am 2.5ft 4s 4s 22 29 mph 1021.8mb 40f 12f
5:50am 3.5ft 4s 4s 25 29 mph 1021.2mb 40f 11f
4:50am 3.5ft 4s 4s 29 36 mph 1020.3mb 40f 13f
3:50am 4ft 4s 4s 27 36 mph 1019.4mb 41f 12f
2:50am 4.5ft 5s 4s 29 36 mph 1018.3mb 40f 13f
1:50am 4.5ft 5s 4s 31 38 mph 1017.2mb 40f 14f
12:50am 4.5ft 5s 4s 27 38 mph 1016.1mb 40f 15f
Thu 02/11 11:50pm 4.5ft 5s 4s 27 34 mph 1015.4mb 41f 16f
10:50pm 4.5ft 5s 4s 29 36 mph 1014.6mb 41f 16f
9:50pm 5ft 5s 4s 29 43 mph 1014mb 40f 17f
8:50pm 4.5ft 5s 4s 31 40 mph 1013mb 40f 18f
7:50pm 5ft 5s 4s 31 38 mph 1011.9mb 40f 20f
6:50pm 5ft 5s 4s 31 38 mph 1010.4mb 41f 22f
5:50pm 5ft 5s 4s 34 40 mph 1008.7mb 41f 23f
4:50pm 3.5ft 5s 4s 31 38 mph 1007mb 41f 26f
3:50pm 4ft 4s 4s 27 34 mph 1006.3mb 41f 26f
2:50pm 3.5ft 4s 4s 27 31 mph 1005.3mb 41f 26f
1:50pm 3ft 4s 4s 27 34 mph 1004.7mb 41f 27f
12:50pm 2.5ft 12s 4s 22 27 mph 1004.9mb 41f 27f
11:50am 3ft 4s 4s 22 27 mph 1005.3mb 41f 25f
10:50am 3ft 11s 4s 20 25 mph 1005.9mb 41f 26f
9:50am 2.5ft 4s 4s 20 25 mph 1005.5mb 41f 28f
8:50am 2.5ft 11s 4s 20 25 mph 1005.5mb 41f 28f
7:50am 2.5ft 10s 5s 13 18 mph 1005.2mb 41f 28f
6:50am 2.5ft 10s 4s 16 20 mph 1004.8mb 41f 29f
5:50am 2.5ft 3s 4s 20 22 mph 1004.4mb 41f 30f
4:50am 3ft 11s 4s 18 22 mph 1004mb 41f 31f
3:50am 3ft 11s 4s 20 25 mph 1003.3mb 41f 31f
2:50am 3.5ft 11s 4s 20 25 mph 1003.2mb 41f 33f
1:50am 3.5ft 11s 4s 22 27 mph 1003mb 41f 33f
12:50am 3ft 11s 4s 20 25 mph 1003.1mb 41f 33f
Wed 02/10 11:50pm 3ft 11s 4s 22 27 mph 1003.2mb 41f 34f
10:50pm 3ft 11s 4s 20 25 mph 1002.9mb 41f 35f
9:50pm 3.5ft 11s 4s 25 29 mph 1002.7mb 41f 36f
8:50pm 3ft 8s 5s 20 22 mph 1002.6mb 41f 36f
7:50pm 3ft 11s 7s 16 18 mph 1002.7mb 41f 36f